Graig Cardiff — 2FON6 — position and weather

sailwx.info

Track history (hours):
 
Tides and Currents Weather Stations Pressure Air Temp Water Temp Dewpoint Dewpoint Depression Visibility Wind Speed Wind Dir Waves Ship Positions

Graig Cardiff

Last reported at 2017-Aug-19 15:30 UTC. Time now 2017-Sep-24 05:18 UTC.
Position N 34°46' W 014°29'.
Warning: this ship's position is 35 days out of date.

Length 180 m; draft 9 m.

Type: Cargo ship. MMSI: 235093065.

Date/timePositionNaut miles runAvg speedWind from/ knotsBaromVisibWave heightAir tempDewpointWater temp
2017-Aug-19 15:30N 34°46' W 014°29'713.1
2017-Aug-19 14:59N 34°47' W 014°21'3712.9
2017-Aug-19 12:04N 34°57' W 013°37'112.7
2017-Aug-19 11:58N 34°57' W 013°35'612.9
2017-Aug-19 11:30N 34°59' W 013°28'613.1
2017-Aug-19 11:00N 35°01' W 013°21'613.0
2017-Aug-19 10:30N 35°02' W 013°13'612.7
2017-Aug-19 10:00N 35°04' W 013°06'612.5
2017-Aug-19 09:30N 35°06' W 012°58'612.6
2017-Aug-19 09:01N 35°07' W 012°51'1912.8
2017-Aug-19 07:33N 35°12' W 012°29'10312.8
2017-Aug-18 23:28N 35°39' W 010°26'912.5
2017-Aug-18 22:46N 35°41' W 010°16'1512.6
2017-Aug-18 21:36N 35°45' W 009°58'112.7
2017-Aug-18 21:30N 35°45' W 009°57'712.7
2017-Aug-18 20:58N 35°47' W 009°48'612.7
2017-Aug-18 20:29N 35°49' W 009°41'612.7
2017-Aug-18 20:00N 35°50' W 009°34'1112.7
2017-Aug-18 19:07N 35°53' W 009°21'112.8
2017-Aug-18 19:01N 35°54' W 009°19'612.5
2017-Aug-18 18:30N 35°55' W 009°11'612.7
2017-Aug-18 18:01N 35°57' W 009°04'612.6
2017-Aug-18 17:30N 35°58' W 008°56'712.8
2017-Aug-18 16:59N 36°00' W 008°48'612.8
2017-Aug-18 16:30N 36°02' W 008°41'1912.4
2017-Aug-18 14:56N 36°03' W 008°17'142 4.9
2017-Aug-17 10:06N 36°07' W 005°21'0 0.3
2017-Aug-17 10:00N 36°07' W 005°21'0 0.0
2017-Aug-17 08:48N 36°07' W 005°21'2 4.5
2017-Aug-17 08:25N 36°05' W 005°21'410.6
2017-Aug-17 08:00N 36°05' W 005°16'  
2017-Aug-10 08:42N 37°05' W 000°54'413.9
2017-Aug-10 08:26N 37°06' W 000°49'613.7
2017-Aug-10 08:00N 37°07' W 000°42'  
Track history (hours):
 
Tides and Currents Weather Stations Pressure Air Temp Water Temp Dewpoint Dewpoint Depression Visibility Wind Speed Wind Dir Waves Ship Positions

Graig Cardiff

Last reported at 2017-Aug-19 15:30 UTC. Time now 2017-Sep-24 05:18 UTC.
Position N 34°46' W 014°29'.
Warning: this ship's position is 35 days out of date.

Length 180 m; draft 9 m.

Type: Cargo ship. MMSI: 235093065.

Date/timePositionNaut miles runAvg speedWind from/ knotsBaromVisibWave heightAir tempDewpointWater temp
2017-Aug-19 15:30N 34°46' W 014°29'713.1
2017-Aug-19 14:59N 34°47' W 014°21'3712.9
2017-Aug-19 12:04N 34°57' W 013°37'112.7
2017-Aug-19 11:58N 34°57' W 013°35'612.9
2017-Aug-19 11:30N 34°59' W 013°28'613.1
2017-Aug-19 11:00N 35°01' W 013°21'613.0
2017-Aug-19 10:30N 35°02' W 013°13'612.7
2017-Aug-19 10:00N 35°04' W 013°06'612.5
2017-Aug-19 09:30N 35°06' W 012°58'612.6
2017-Aug-19 09:01N 35°07' W 012°51'1912.8
2017-Aug-19 07:33N 35°12' W 012°29'10312.8
2017-Aug-18 23:28N 35°39' W 010°26'912.5
2017-Aug-18 22:46N 35°41' W 010°16'1512.6
2017-Aug-18 21:36N 35°45' W 009°58'112.7
2017-Aug-18 21:30N 35°45' W 009°57'712.7
2017-Aug-18 20:58N 35°47' W 009°48'612.7
2017-Aug-18 20:29N 35°49' W 009°41'612.7
2017-Aug-18 20:00N 35°50' W 009°34'1112.7
2017-Aug-18 19:07N 35°53' W 009°21'112.8
2017-Aug-18 19:01N 35°54' W 009°19'612.5
2017-Aug-18 18:30N 35°55' W 009°11'612.7
2017-Aug-18 18:01N 35°57' W 009°04'612.6
2017-Aug-18 17:30N 35°58' W 008°56'712.8
2017-Aug-18 16:59N 36°00' W 008°48'612.8
2017-Aug-18 16:30N 36°02' W 008°41'1912.4
2017-Aug-18 14:56N 36°03' W 008°17'142 4.9
2017-Aug-17 10:06N 36°07' W 005°21'0 0.3
2017-Aug-17 10:00N 36°07' W 005°21'0 0.0
2017-Aug-17 08:48N 36°07' W 005°21'2 4.5
2017-Aug-17 08:25N 36°05' W 005°21'410.6
2017-Aug-17 08:00N 36°05' W 005°16'  
2017-Aug-10 08:42N 37°05' W 000°54'413.9
2017-Aug-10 08:26N 37°06' W 000°49'613.7
2017-Aug-10 08:00N 37°07' W 000°42'  

Dump ship's entire track history